Time;durP1;ratioP1;P1;durP2;ratioP2;P2;SDS_P1;SDS_P2;PMS_P1;PMS_P2;Temp;Humidity;BMP_temperature;BMP_pressure;BME280_temperature;BME280_humidity;BME280_pressure;Samples;Min_cycle;Max_cycle;Signal;HPM_P1;HPM_P2
2021/05/21 04:59:58;;;;;;;2.85;1.52;;;;;;;20.67;46.32;99783.98;1833505;77;23255;-67
2021/05/21 05:02:25;;;;;;;4.97;1.65;;;;;;;20.70;47.05;99783.67;1806124;78;21683;-66
2021/05/21 05:04:53;;;;;;;2.75;2.33;;;;;;;20.70;47.05;99783.67;1746097;80;21256;-66
2021/05/21 05:07:21;;;;;;;2.87;1.85;;;;;;;21.02;46.65;99785.64;1748809;80;21056;-65
2021/05/21 05:09:49;;;;;;;1.82;1.50;;;;;;;21.42;45.07;99784.98;1737491;81;21012;-66
2021/05/21 05:12:16;;;;;;;1.40;1.30;;;;;;;21.84;43.65;99795.98;1761362;80;20921;-64
2021/05/21 05:14:45;;;;;;;1.98;1.27;;;;;;;22.14;42.74;99798.52;1751343;80;21241;-63
2021/05/21 05:17:13;;;;;;;6.83;2.12;;;;;;;22.42;42.24;99796.33;1767670;80;21696;-64
2021/05/21 05:19:40;;;;;;;1.35;1.25;;;;;;;22.74;42.12;99789.65;1770658;80;21063;-67
2021/05/21 05:22:08;;;;;;;2.05;1.17;;;;;;;23.12;40.92;99796.02;1762814;80;20980;-65
2021/05/21 05:24:35;;;;;;;1.72;1.12;;;;;;;23.48;40.35;99796.33;1745471;80;21044;-67
2021/05/21 05:27:03;;;;;;;1.50;1.40;;;;;;;23.81;39.84;99800.97;1734394;81;20920;-66
2021/05/21 05:29:33;;;;;;;1.10;1.10;;;;;;;24.06;38.49;99810.91;1732611;81;21590;-68
2021/05/21 05:32:04;;;;;;;1.10;1.00;;;;;;;24.17;37.80;99801.18;1754149;81;21609;-66
2021/05/21 05:34:31;;;;;;;1.92;1.10;;;;;;;24.26;37.50;99809.96;1748398;80;21028;-64
2021/05/21 05:36:59;;;;;;;1.45;1.35;;;;;;;24.34;36.69;99811.22;1758337;80;20984;-66
2021/05/21 05:39:26;;;;;;;3.15;1.20;;;;;;;24.40;37.33;99807.81;1758263;80;21031;-63
2021/05/21 05:41:54;;;;;;;1.40;1.20;;;;;;;24.45;35.92;99808.10;1765567;80;21102;-68
2021/05/21 05:44:21;;;;;;;1.37;1.25;;;;;;;24.30;35.47;99816.58;1766649;80;21128;-67
2021/05/21 05:46:50;;;;;;;1.40;1.30;;;;;;;23.99;35.77;99811.82;1739415;81;21012;-67
2021/05/21 05:49:17;;;;;;;1.30;1.20;;;;;;;23.75;37.08;99810.14;1756765;81;21031;-72
2021/05/21 05:51:48;;;;;;;1.30;1.20;;;;;;;23.83;36.71;99818.91;1752338;81;20936;-64
2021/05/21 05:54:15;;;;;;;4.72;1.22;;;;;;;23.94;35.98;99822.48;1773939;80;21079;-68
2021/05/21 05:56:45;;;;;;;1.70;1.27;;;;;;;23.92;35.58;99814.36;1746297;80;21619;-63
2021/05/21 05:59:13;;;;;;;1.12;1.02;;;;;;;23.92;36.14;99821.84;1736007;81;20956;-64
2021/05/21 06:01:41;;;;;;;1.40;1.30;;;;;;;24.08;35.79;99826.19;1718756;81;21115;-64
2021/05/21 06:04:08;;;;;;;1.40;1.30;;;;;;;24.14;36.24;99819.33;1744679;81;21124;-66
2021/05/21 06:06:35;;;;;;;2.40;1.27;;;;;;;24.24;36.42;99817.27;1731985;81;21071;-66
2021/05/21 06:09:04;;;;;;;2.47;1.12;;;;;;;24.49;35.66;99813.89;1727139;81;21052;-64
2021/05/21 06:11:32;;;;;;;1.27;1.17;;;;;;;24.71;35.24;99820.18;1732555;82;21506;-67
2021/05/21 06:14:00;;;;;;;1.15;1.15;;;;;;;24.96;33.98;99818.09;1757874;80;20981;-71
2021/05/21 06:16:27;;;;;;;1.35;1.20;;;;;;;25.00;34.57;99814.06;1771113;80;21645;-69
2021/05/21 06:18:54;;;;;;;1.60;1.10;;;;;;;24.96;33.31;99814.93;1735404;82;21001;-66
2021/05/21 06:21:21;;;;;;;1.10;1.10;;;;;;;24.82;33.46;99814.38;1731672;81;20997;-63
2021/05/21 06:23:48;;;;;;;1.22;1.12;;;;;;;24.74;34.00;99820.65;1742044;81;21668;-64
2021/05/21 06:26:29;;;;;;;1.30;1.20;;;;;;;24.70;33.44;99815.87;1797040;79;21008;-64
2021/05/21 06:28:45;;;;;;;0.95;0.95;;;;;;;24.64;33.99;99813.92;1786898;78;21294;-62
2021/05/21 06:31:12;;;;;;;1.10;1.00;;;;;;;24.67;33.57;99814.39;1788032;79;21829;-63
2021/05/21 06:33:41;;;;;;;1.25;1.12;;;;;;;24.74;33.14;99823.81;1786883;79;20977;-66
2021/05/21 06:36:09;;;;;;;4.60;1.25;;;;;;;24.72;33.14;99824.50;1785952;79;21004;-66
2021/05/21 06:38:37;;;;;;;1.40;1.30;;;;;;;24.59;32.54;99843.25;1799467;79;20956;-67
2021/05/21 06:41:04;;;;;;;1.50;1.40;;;;;;;24.43;32.95;99830.58;1784613;78;21376;-70
2021/05/21 06:43:32;;;;;;;1.50;1.42;;;;;;;24.37;33.74;99828.67;1796487;78;21077;-66
2021/05/21 06:46:01;;;;;;;5.10;1.50;;;;;;;24.25;32.72;99828.26;1791683;79;20953;-67
2021/05/21 06:48:32;;;;;;;4.45;1.65;;;;;;;23.98;32.93;99828.78;1742143;81;21008;-68
2021/05/21 06:51:02;;;;;;;1.35;1.25;;;;;;;23.83;33.10;99826.88;1698881;83;20984;-67
2021/05/21 06:53:30;;;;;;;3.67;1.60;;;;;;;23.67;33.51;99825.64;1736117;81;21040;-71
2021/05/21 06:55:57;;;;;;;3.60;1.95;;;;;;;23.52;34.59;99831.36;1721072;82;20982;-67
2021/05/21 06:58:26;;;;;;;1.95;1.40;;;;;;;23.48;34.34;99838.86;1709334;82;21072;-67
2021/05/21 07:01:00;;;;;;;1.90;1.47;;;;;;;23.34;34.03;99836.92;1748720;82;21388;-69
2021/05/21 07:03:31;;;;;;;8.50;1.57;;;;;;;23.23;33.58;99838.12;1794077;78;21032;-65
2021/05/21 07:05:56;;;;;;;1.87;1.45;;;;;;;23.06;35.00;99842.34;1801822;78;20951;-65
2021/05/21 07:08:26;;;;;;;1.40;1.30;;;;;;;23.15;35.16;99840.00;1789471;78;20893;-66
2021/05/21 07:10:55;;;;;;;2.58;1.22;;;;;;;23.29;35.58;99839.27;1802058;78;21055;-64
2021/05/21 07:13:22;;;;;;;3.30;1.37;;;;;;;23.52;35.34;99842.00;1746553;81;21000;-66
2021/05/21 07:15:49;;;;;;;1.37;1.30;;;;;;;23.81;35.87;99844.84;1723606;81;21593;-67
2021/05/21 07:18:16;;;;;;;2.60;1.30;;;;;;;24.11;35.14;99843.63;1802405;78;20975;-69
2021/05/21 07:20:46;;;;;;;3.85;1.50;;;;;;;24.40;34.26;99845.58;1791818;78;21882;-68
2021/05/21 07:23:13;;;;;;;1.77;1.40;;;;;;;24.56;33.52;99847.60;1793880;78;21486;-70
2021/05/21 07:25:42;;;;;;;1.47;1.37;;;;;;;24.38;32.53;99850.28;1790525;78;20992;-71
2021/05/21 07:28:09;;;;;;;1.62;1.40;;;;;;;24.03;33.82;99839.69;1800697;78;21596;-67
2021/05/21 07:30:37;;;;;;;3.05;1.20;;;;;;;24.01;34.40;99845.69;1805563;78;20928;-69
2021/05/21 07:33:16;;;;;;;5.53;2.05;;;;;;;24.09;34.54;99845.64;1795379;78;21337;-71
2021/05/21 07:35:44;;;;;;;1.52;1.42;;;;;;;24.21;34.37;99846.88;1801586;78;20997;-67
2021/05/21 07:38:15;;;;;;;1.98;1.17;;;;;;;24.31;34.18;99848.84;1804214;78;21214;-69
2021/05/21 07:40:45;;;;;;;3.25;1.30;;;;;;;24.41;34.26;99855.22;1769681;78;21043;-67
2021/05/21 07:43:12;;;;;;;1.65;1.55;;;;;;;24.55;33.86;99853.94;1797638;78;21023;-69
2021/05/21 07:45:41;;;;;;;1.32;1.22;;;;;;;24.68;33.72;99850.66;1805164;78;20984;-68
2021/05/21 07:48:10;;;;;;;1.77;1.30;;;;;;;24.82;33.53;99851.67;1792812;78;21011;-68
2021/05/21 07:50:41;;;;;;;1.50;1.40;;;;;;;24.89;33.23;99853.42;1801451;78;21051;-68
2021/05/21 07:53:07;;;;;;;2.55;1.15;;;;;;;24.77;32.95;99857.56;1794986;78;21577;-71
2021/05/21 07:55:39;;;;;;;1.47;1.22;;;;;;;24.56;32.75;99853.43;1807690;78;20960;-69
2021/05/21 07:58:07;;;;;;;2.95;1.30;;;;;;;24.18;33.82;99854.72;1759884;78;21703;-70
2021/05/21 08:00:35;;;;;;;4.10;1.37;;;;;;;24.08;34.98;99865.27;1752017;81;20996;-66
2021/05/21 08:03:03;;;;;;;4.58;1.80;;;;;;;24.17;34.46;99863.70;1744139;80;21633;-66
2021/05/21 08:05:30;;;;;;;4.30;1.32;;;;;;;24.30;35.03;99870.30;1725550;81;21134;-67
2021/05/21 08:07:58;;;;;;;2.65;1.20;;;;;;;24.43;34.80;99871.34;1799627;78;20984;-69
2021/05/21 08:10:25;;;;;;;3.45;1.25;;;;;;;24.59;34.75;99859.22;1797030;78;21390;-69
2021/05/21 08:12:53;;;;;;;4.10;1.30;;;;;;;24.73;34.50;99862.11;1804057;78;21055;-66
2021/05/21 08:15:22;;;;;;;1.20;1.20;;;;;;;24.75;33.24;99857.42;1796910;78;20992;-72
2021/05/21 08:17:49;;;;;;;1.30;1.10;;;;;;;24.60;33.42;99858.72;1727099;81;21549;-68
2021/05/21 08:20:17;;;;;;;1.65;1.30;;;;;;;24.38;33.34;99861.76;1728796;81;20952;-68
2021/05/21 08:22:47;;;;;;;4.08;1.20;;;;;;;24.08;34.48;99863.94;1810154;78;21700;-68
2021/05/21 08:25:15;;;;;;;2.05;1.32;;;;;;;23.89;34.33;99862.58;1756087;80;20969;-68
2021/05/21 08:27:42;;;;;;;1.50;1.17;;;;;;;23.64;36.04;99867.70;1814208;78;20937;-67
2021/05/21 08:30:12;;;;;;;1.30;1.20;;;;;;;23.40;36.67;99874.77;1810105;78;21047;-71
2021/05/21 08:32:41;;;;;;;1.37;1.20;;;;;;;23.27;35.87;99879.28;1788516;78;21345;-72
2021/05/21 08:35:14;;;;;;;1.70;1.10;;;;;;;23.19;36.18;99881.97;1794269;78;21150;-68
2021/05/21 08:37:42;;;;;;;1.10;1.02;;;;;;;23.07;35.68;99874.55;1790424;78;21054;-67
2021/05/21 08:40:24;;;;;;;1.42;0.98;;;;;;;22.73;35.67;99870.28;1815353;78;20948;-68
2021/05/21 08:42:56;;;;;;;1.50;1.40;;;;;;;22.47;36.75;99862.98;1775174;78;21060;-71
2021/05/21 08:45:34;;;;;;;2.02;1.15;;;;;;;22.51;36.56;99870.45;1797329;78;20995;-69
2021/05/21 08:48:02;;;;;;;;;;;;;;;22.48;36.76;99867.30;1799545;78;21103;-68
2021/05/21 08:50:32;;;;;;;3.00;1.15;;;;;;;22.46;37.34;99873.27;1792432;78;20208;-71
2021/05/21 08:53:02;;;;;;;1.98;1.50;;;;;;;22.44;37.97;99863.31;1790304;78;21026;-70
2021/05/21 08:55:30;;;;;;;1.57;1.47;;;;;;;22.64;37.98;99881.90;1802316;78;21625;-70
2021/05/21 08:57:57;;;;;;;1.60;1.30;;;;;;;22.68;37.88;99879.74;1795540;78;21007;-69
2021/05/21 09:00:26;;;;;;;2.35;1.30;;;;;;;22.46;37.37;99877.25;1790267;78;21122;-69
2021/05/21 09:02:57;;;;;;;6.75;1.40;;;;;;;22.14;38.38;99874.92;1765505;80;20946;-69
2021/05/21 09:05:30;;;;;;;1.20;0.95;;;;;;;21.96;39.07;99881.67;1802504;79;21533;-67
2021/05/21 09:07:59;;;;;;;4.75;4.20;;;;;;;21.82;38.98;99875.67;1718964;82;21572;-68
2021/05/21 09:10:27;;;;;;;2.62;2.42;;;;;;;21.61;39.09;99885.37;1743305;80;21052;-69
2021/05/21 09:12:56;;;;;;;1.77;1.67;;;;;;;21.35;39.55;99889.08;1743059;80;21039;-70
2021/05/21 09:15:27;;;;;;;1.60;1.32;;;;;;;21.21;40.41;99881.23;1715055;80;21063;-71
2021/05/21 09:18:04;;;;;;;2.85;1.40;;;;;;;21.26;40.39;99891.69;1742312;81;20973;-73
2021/05/21 09:20:39;;;;;;;2.05;1.50;;;;;;;21.30;40.19;99894.36;1732250;82;21548;-69
2021/05/21 09:23:12;;;;;;;1.42;0.98;;;;;;;21.23;40.09;99893.32;1732178;80;21456;-71
2021/05/21 09:25:48;;;;;;;1.60;1.22;;;;;;;21.17;40.07;99891.30;1757685;80;20984;-69
2021/05/21 09:28:38;;;;;;;2.22;1.30;;;;;;;21.21;40.70;99883.38;1752677;80;21554;-68
2021/05/21 09:31:22;;;;;;;1.82;1.45;;;;;;;21.39;40.39;99889.94;1741225;80;20980;-70
2021/05/21 09:33:53;;;;;;;2.87;1.40;;;;;;;21.59;39.85;99879.40;1721929;82;21558;-69
2021/05/21 09:36:36;;;;;;;1.40;1.30;;;;;;;21.61;39.48;99881.89;1743966;81;20922;-69
2021/05/21 09:39:10;;;;;;;1.70;1.27;;;;;;;21.50;40.20;99884.36;1724503;82;21057;-65
2021/05/21 09:41:47;;;;;;;0.95;0.95;;;;;;;21.40;39.75;99878.84;1788224;79;20925;-66
2021/05/21 09:44:17;;;;;;;1.77;1.05;;;;;;;21.30;39.59;99880.28;1791995;78;20981;-72
2021/05/21 09:46:49;;;;;;;2.72;1.20;;;;;;;21.24;38.40;99883.06;1780733;79;21103;-68
2021/05/21 09:49:34;;;;;;;0.78;0.78;;;;;;;21.10;38.58;99882.81;1759320;80;20972;-65
2021/05/21 09:52:06;;;;;;;1.40;1.05;;;;;;;20.96;40.35;99882.39;1787741;79;21931;-66
2021/05/21 09:54:55;;;;;;;3.30;1.10;;;;;;;20.96;40.35;99882.39;1780513;78;20960;-74
2021/05/21 09:57:35;;;;;;;1.10;1.00;;;;;;;21.10;39.76;99883.64;1768501;80;20961;-66
2021/05/21 10:00:12;;;;;;;3.70;1.27;;;;;;;21.19;40.27;99876.58;1785680;79;21557;-66
2021/05/21 10:02:41;;;;;;;0.80;0.80;;;;;;;21.30;40.31;99880.28;1786964;79;20992;-65
2021/05/21 10:05:12;;;;;;;2.02;1.32;;;;;;;21.25;40.15;99879.92;1786663;78;21704;-65
2021/05/21 10:07:38;;;;;;;1.05;1.05;;;;;;;21.17;40.93;99883.36;1786740;78;20973;-65
2021/05/21 10:10:10;;;;;;;1.35;1.02;;;;;;;21.15;41.37;99890.62;1791202;78;21485;-65
2021/05/21 10:12:38;;;;;;;1.27;1.10;;;;;;;21.12;40.95;99885.64;1800576;78;21043;-67
2021/05/21 10:15:10;;;;;;;4.65;1.42;;;;;;;21.13;39.93;99882.01;1784901;78;21028;-65
2021/05/21 10:17:37;;;;;;;2.35;1.00;;;;;;;21.15;39.86;99884.00;1792179;78;21633;-65
2021/05/21 10:20:06;;;;;;;12.25;1.45;;;;;;;21.21;39.82;99879.41;1790265;78;21608;-65
2021/05/21 10:22:37;;;;;;;3.30;1.20;;;;;;;21.35;40.02;99871.86;1756629;80;20931;-65
2021/05/21 10:25:12;;;;;;;1.15;1.05;;;;;;;21.49;39.40;99877.40;1786878;78;21598;-64
2021/05/21 10:27:40;;;;;;;;;;;;;;;21.57;39.52;99876.11;1789535;80;21537;-65
2021/05/21 10:30:11;;;;;;;1.15;1.00;;;;;;;21.63;39.50;99883.88;1788039;78;20660;-65
2021/05/21 10:32:39;;;;;;;5.08;1.25;;;;;;;21.11;39.64;99882.66;1806725;78;21083;-65
2021/05/21 10:35:20;;;;;;;2.55;1.07;;;;;;;21.11;39.64;99882.66;1796131;78;21000;-65
2021/05/21 10:38:27;;;;;;;1.12;1.02;;;;;;;20.85;39.30;99883.14;1744280;80;21079;-64
2021/05/21 10:41:14;;;;;;;;;;;;;;;20.53;40.49;99883.25;1756263;80;21001;-64
2021/05/21 10:43:50;;;;;;;1.30;1.20;;;;;;;20.35;41.39;99882.43;1738265;81;21277;-65
2021/05/21 10:46:21;;;;;;;3.02;1.17;;;;;;;20.25;41.60;99884.31;1703054;81;20996;-65
2021/05/21 10:49:27;;;;;;;1.47;1.20;;;;;;;20.20;41.35;99884.77;1743812;81;20972;-65
2021/05/21 10:52:02;;;;;;;3.72;1.17;;;;;;;20.19;40.88;99882.27;1713418;82;21052;-65
2021/05/21 10:54:36;;;;;;;1.55;1.20;;;;;;;20.10;41.95;99876.56;1690730;82;20960;-66
2021/05/21 10:57:18;;;;;;;1.42;1.30;;;;;;;20.08;41.87;99875.39;1731093;82;22584;-66
2021/05/21 10:59:56;;;;;;;1.12;1.10;;;;;;;20.11;41.21;99876.41;1722559;82;22325;-65
2021/05/21 11:02:45;;;;;;;1.80;1.70;;;;;;;20.19;40.97;99872.53;1690206;82;20983;-65
2021/05/21 11:05:37;;;;;;;3.60;2.40;;;;;;;20.28;41.10;99869.47;1730489;82;21016;-65
2021/05/21 11:08:07;;;;;;;5.47;2.10;;;;;;;20.36;40.94;99871.36;1688258;83;21031;-66
2021/05/21 11:10:42;;;;;;;2.70;1.40;;;;;;;20.46;41.03;99862.36;1716422;83;21098;-66
2021/05/21 11:13:15;;;;;;;3.17;1.30;;;;;;;20.54;41.98;99859.78;1690401;83;21055;-66
2021/05/21 11:15:55;;;;;;;2.40;1.20;;;;;;;20.61;41.47;99854.22;1686057;83;21026;-68
2021/05/21 11:18:25;;;;;;;2.52;2.33;;;;;;;20.69;41.39;99853.95;1724993;81;20964;-65
2021/05/21 11:21:08;;;;;;;7.30;5.47;;;;;;;20.70;40.67;99856.44;1722087;81;21715;-66
2021/05/21 11:23:46;;;;;;;9.33;5.42;;;;;;;20.51;41.11;99860.09;1723979;81;21372;-69
2021/05/21 11:26:21;;;;;;;4.30;3.02;;;;;;;20.30;41.52;99860.90;1737562;81;21118;-67
2021/05/21 11:28:56;;;;;;;2.00;1.90;;;;;;;20.18;42.23;99856.33;1748425;81;21011;-67
2021/05/21 11:31:33;;;;;;;3.58;1.70;;;;;;;20.14;42.48;99857.61;1745604;81;20948;-67
2021/05/21 11:34:09;;;;;;;1.67;1.57;;;;;;;20.11;42.33;99854.44;1742245;81;21023;-71
2021/05/21 11:36:38;;;;;;;1.50;1.40;;;;;;;20.06;42.65;99852.23;1744848;81;21039;-71
2021/05/21 11:39:06;;;;;;;3.55;1.60;;;;;;;20.05;42.79;99859.83;1739423;81;21004;-71
2021/05/21 11:41:45;;;;;;;1.32;1.22;;;;;;;20.08;43.38;99862.17;1709770;82;21567;-70
2021/05/21 11:44:12;;;;;;;4.87;1.55;;;;;;;20.13;42.63;99857.76;1747707;81;21566;-70
2021/05/21 11:46:44;;;;;;;2.92;1.40;;;;;;;20.17;42.82;99855.98;1741821;81;21008;-66
2021/05/21 11:49:20;;;;;;;1.60;1.50;;;;;;;20.21;42.96;99855.20;1743773;81;21062;-68
2021/05/21 11:52:02;;;;;;;1.30;1.20;;;;;;;20.25;42.46;99852.09;1749157;81;21136;-70
2021/05/21 11:54:33;;;;;;;1.85;1.62;;;;;;;20.29;42.12;99852.62;1753682;81;21417;-69
2021/05/21 11:57:02;;;;;;;2.20;1.20;;;;;;;20.33;40.94;99842.08;1722112;81;21000;-68
2021/05/21 11:59:31;;;;;;;2.58;1.40;;;;;;;20.33;41.37;99850.51;1728450;81;21004;-68
2021/05/21 12:02:05;;;;;;;1.75;1.62;;;;;;;20.33;41.37;99850.51;1744298;81;21014;-66
2021/05/21 12:04:38;;;;;;;1.55;1.40;;;;;;;20.22;41.06;99846.28;1738814;81;21035;-66
2021/05/21 12:07:08;;;;;;;2.35;1.57;;;;;;;20.04;41.52;99846.27;1719924;81;21047;-69
2021/05/21 12:09:36;;;;;;;1.62;1.52;;;;;;;19.85;41.56;99851.23;1697704;81;20954;-65
2021/05/21 12:12:08;;;;;;;1.57;1.47;;;;;;;19.73;41.95;99862.16;1714694;81;21533;-69
2021/05/21 12:14:46;;;;;;;3.15;1.42;;;;;;;19.64;41.71;99860.73;1709078;81;20995;-70
2021/05/21 12:17:14;;;;;;;2.67;1.70;;;;;;;19.61;41.70;99865.48;1745164;81;21622;-69
2021/05/21 12:19:47;;;;;;;3.55;1.55;;;;;;;19.64;41.88;99863.87;1739987;81;21021;-64
2021/05/21 12:22:14;;;;;;;2.30;1.47;;;;;;;19.74;41.05;99856.72;1732918;81;21104;-64
2021/05/21 12:24:48;;;;;;;3.17;1.60;;;;;;;19.86;41.20;99856.86;1706846;81;21632;-67
2021/05/21 12:27:28;;;;;;;3.52;1.52;;;;;;;19.96;42.38;99861.59;1742446;81;21011;-66
2021/05/21 12:29:56;;;;;;;3.02;1.30;;;;;;;20.04;41.71;99856.02;1739257;81;21569;-65
2021/05/21 12:32:28;;;;;;;1.55;1.45;;;;;;;20.10;41.56;99856.25;1743988;81;21038;-74
2021/05/21 12:34:56;;;;;;;2.45;1.50;;;;;;;20.18;40.54;99862.94;1738871;81;21494;-70
2021/05/21 12:37:25;;;;;;;2.15;1.50;;;;;;;20.26;39.86;99864.33;1710670;81;21011;-69
2021/05/21 12:39:59;;;;;;;2.10;1.47;;;;;;;20.30;40.64;99865.70;1725836;81;21648;-68
2021/05/21 12:42:31;;;;;;;1.80;1.70;;;;;;;20.32;40.36;99869.51;1727195;82;21053;-71
2021/05/21 12:45:12;;;;;;;2.12;1.40;;;;;;;20.29;39.94;99874.61;1741546;81;21456;-75
2021/05/21 12:47:47;;;;;;;2.08;1.60;;;;;;;20.24;39.41;99872.08;1737832;80;21098;-72
2021/05/21 12:50:19;;;;;;;2.72;1.60;;;;;;;20.17;39.26;99871.02;1725944;82;21639;-69
2021/05/21 12:52:57;;;;;;;1.32;1.22;;;;;;;20.14;39.58;99870.83;1722084;82;21104;-69
2021/05/21 12:55:33;;;;;;;1.42;1.32;;;;;;;20.16;38.80;99867.55;1717334;82;21218;-71
2021/05/21 12:58:05;;;;;;;1.20;1.12;;;;;;;20.20;38.54;99868.91;1685334;82;21048;-71
2021/05/21 13:00:34;;;;;;;2.15;1.50;;;;;;;20.25;38.10;99869.77;1717957;82;21048;-70
2021/05/21 13:03:08;;;;;;;4.65;1.75;;;;;;;20.28;37.73;99863.69;1718027;82;20969;-75
2021/05/21 13:05:45;;;;;;;1.70;0.93;;;;;;;20.29;37.68;99865.35;1721586;82;21057;-73
2021/05/21 13:08:14;;;;;;;2.65;1.22;;;;;;;20.28;35.99;99874.76;1715478;82;21085;-71
2021/05/21 13:10:45;;;;;;;0.90;0.90;;;;;;;20.17;35.34;99873.66;1718610;82;20989;-68
2021/05/21 13:13:14;;;;;;;1.40;1.17;;;;;;;20.05;35.17;99870.41;1724108;82;21012;-70
2021/05/21 13:15:45;;;;;;;5.33;1.20;;;;;;;19.94;35.43;99866.19;1687391;82;21094;-68
2021/05/21 13:18:21;;;;;;;1.32;1.22;;;;;;;19.90;36.04;99870.60;1690970;82;20988;-66
2021/05/21 13:20:49;;;;;;;5.55;1.17;;;;;;;19.86;37.13;99878.00;1695730;82;21690;-67
2021/05/21 13:23:20;;;;;;;3.05;1.42;;;;;;;19.83;37.07;99875.65;1716762;82;21646;-68
2021/05/21 13:25:53;;;;;;;1.12;1.02;;;;;;;19.82;36.61;99877.12;1712281;82;21463;-69
2021/05/21 13:28:21;;;;;;;2.35;1.42;;;;;;;19.80;37.40;99885.19;1712677;82;20933;-70
2021/05/21 13:30:52;;;;;;;1.30;1.20;;;;;;;19.78;36.54;99884.51;1724006;82;21097;-66
2021/05/21 13:33:19;;;;;;;2.05;1.00;;;;;;;19.75;35.84;99880.01;1721666;82;21051;-66
2021/05/21 13:35:51;;;;;;;3.70;1.10;;;;;;;19.73;36.32;99878.00;1715947;82;20963;-67
2021/05/21 13:38:23;;;;;;;1.50;1.27;;;;;;;19.73;36.77;99880.16;1711826;82;21690;-65
2021/05/21 13:40:54;;;;;;;1.17;1.10;;;;;;;19.72;36.08;99881.13;1715940;82;21611;-67
2021/05/21 13:43:23;;;;;;;3.02;1.22;;;;;;;19.67;35.99;99874.62;1718585;82;20985;-66
2021/05/21 13:45:51;;;;;;;2.60;1.35;;;;;;;19.60;36.28;99876.53;1725394;82;21449;-66
2021/05/21 13:48:18;;;;;;;1.85;1.50;;;;;;;19.57;36.48;99877.35;1730734;82;21068;-69
2021/05/21 13:50:48;;;;;;;1.45;1.02;;;;;;;19.54;36.78;99882.92;1693805;83;21010;-67
2021/05/21 13:53:15;;;;;;;1.55;1.40;;;;;;;19.51;37.47;99881.41;1737969;81;21049;-66
2021/05/21 13:55:43;;;;;;;2.15;1.40;;;;;;;19.50;37.42;99882.84;1704908;82;21101;-64
2021/05/21 13:58:11;;;;;;;2.02;1.32;;;;;;;19.47;37.85;99884.45;1737206;82;21044;-68
2021/05/21 14:00:40;;;;;;;1.12;1.10;;;;;;;19.46;37.69;99873.06;1729028;81;21027;-66
